Time,TemperatureF,DewpointF,PressureIn,WindDirection,WindDirectionDegrees,WindSpeedMPH,WindSpeedGustMPH,Humidity,HourlyPrecipIn,Conditions,Clouds,dailyrainin,SoftwareType,DateUTC
2013-06-03 00:00:00,66.7,65.5,29.85,NNW,333,0.0,0.0,96,0.12,,---,0.15,VWS V14.01,2013-06-03 04:00:00,
2013-06-03 00:01:00,66.7,65.5,29.85,NNW,333,0.0,0.0,96,0.13,,---,0.16,VWS V14.01,2013-06-03 04:01:00,
2013-06-03 00:02:00,66.7,65.5,29.85,NNW,333,0.0,0.0,96,0.14,,---,0.00,VWS V14.01,2013-06-03 04:02:00,
2013-06-03 00:03:00,66.7,65.5,29.85,NNW,333,0.0,0.0,96,0.14,,---,0.00,VWS V14.01,2013-06-03 04:03:00,
2013-06-03 00:08:00,66.5,65.3,29.85,NW,317,1.0,1.0,96,0.25,,---,0.11,VWS V14.01,2013-06-03 04:08:00,
2013-06-03 00:13:00,66.3,65.1,29.85,NW,317,0.0,0.0,96,0.27,,---,0.13,VWS V14.01,2013-06-03 04:13:00,
2013-06-03 00:18:00,66.1,64.9,29.85,NW,318,0.0,0.0,96,0.29,,---,0.15,VWS V14.01,2013-06-03 04:18:00,
2013-06-03 00:23:00,66.0,64.8,29.85,NW,318,0.0,0.0,96,0.30,,---,0.16,VWS V14.01,2013-06-03 04:23:00,
2013-06-03 00:28:00,66.0,65.1,29.85,NW,317,0.0,0.0,97,0.32,,---,0.18,VWS V14.01,2013-06-03 04:28:00,
2013-06-03 00:33:00,65.7,64.5,29.85,NW,317,0.0,0.0,96,0.31,,---,0.18,VWS V14.01,2013-06-03 04:33:00,
2013-06-03 00:38:00,65.6,64.4,29.84,NW,316,0.0,0.0,96,0.31,,---,0.18,VWS V14.01,2013-06-03 04:38:00,
2013-06-03 00:44:00,65.4,64.2,29.85,NW,316,0.0,0.0,96,0.29,,---,0.19,VWS V14.01,2013-06-03 04:44:00,
2013-06-03 00:49:00,65.2,64.0,29.84,NW,316,0.0,0.0,96,0.26,,---,0.19,VWS V14.01,2013-06-03 04:49:00,
2013-06-03 00:54:00,65.1,63.9,29.84,NW,316,0.0,0.0,96,0.24,,---,0.19,VWS V14.01,2013-06-03 04:54:00,
2013-06-03 00:59:00,64.9,63.7,29.84,NW,316,0.0,0.0,96,0.23,,---,0.19,VWS V14.01,2013-06-03 04:59:00,
2013-06-03 01:04:00,64.6,63.4,29.84,NW,316,0.0,0.0,96,0.19,,---,0.19,VWS V14.01,2013-06-03 05:04:00,
2013-06-03 01:09:00,64.4,63.2,29.84,NW,316,0.0,0.0,96,0.08,,---,0.19,VWS V14.01,2013-06-03 05:09:00,
2013-06-03 01:14:00,64.4,63.5,29.85,NW,316,0.0,0.0,97,0.06,,---,0.19,VWS V14.01,2013-06-03 05:14:00,
2013-06-03 01:19:00,64.4,63.5,29.84,NW,317,0.0,0.0,97,0.05,,---,0.20,VWS V14.01,2013-06-03 05:19:00,
2013-06-03 01:25:00,64.4,63.5,29.84,NW,317,0.0,0.0,97,0.05,,---,0.21,VWS V14.01,2013-06-03 05:25:00,
2013-06-03 01:30:00,64.4,63.5,29.84,NW,316,0.0,0.0,97,0.04,,---,0.22,VWS V14.01,2013-06-03 05:30:00,
2013-06-03 01:35:00,64.4,63.5,29.84,NW,316,0.0,0.0,97,0.05,,---,0.23,VWS V14.01,2013-06-03 05:35:00,
2013-06-03 01:40:00,64.4,63.5,29.84,NW,316,0.0,0.0,97,0.04,,---,0.23,VWS V14.01,2013-06-03 05:40:00,
2013-06-03 01:45:00,64.5,63.6,29.84,NW,316,0.0,0.0,97,0.06,,---,0.25,VWS V14.01,2013-06-03 05:45:00,
2013-06-03 01:50:00,64.6,63.7,29.84,NW,316,0.0,0.0,97,0.09,,---,0.28,VWS V14.01,2013-06-03 05:50:00,
2013-06-03 01:55:00,64.6,64.0,29.84,NW,316,0.0,0.0,98,0.11,,---,0.30,VWS V14.01,2013-06-03 05:55:00,
2013-06-03 02:00:00,64.7,64.1,29.84,NW,316,0.0,0.0,98,0.13,,---,0.32,VWS V14.01,2013-06-03 06:00:00,
2013-06-03 02:05:00,64.7,64.1,29.84,NW,316,0.0,0.0,98,0.14,,---,0.33,VWS V14.01,2013-06-03 06:05:00,
2013-06-03 02:10:00,64.8,64.2,29.84,NW,316,0.0,0.0,98,0.15,,---,0.34,VWS V14.01,2013-06-03 06:10:00,
2013-06-03 02:15:00,64.9,64.3,29.84,NW,316,0.0,0.0,98,0.15,,---,0.34,VWS V14.01,2013-06-03 06:15:00,
2013-06-03 02:20:00,64.9,64.3,29.84,North,360,0.0,0.0,98,0.14,,---,0.34,VWS V14.01,2013-06-03 06:20:00,
2013-06-03 02:25:00,65.0,64.4,29.84,North,349,1.0,1.0,98,0.14,,---,0.35,VWS V14.01,2013-06-03 06:25:00,
2013-06-03 02:30:00,65.0,64.4,29.84,NNW,342,0.0,0.0,98,0.13,,---,0.35,VWS V14.01,2013-06-03 06:30:00,
2013-06-03 02:36:00,65.0,64.4,29.84,NNW,343,0.0,0.0,98,0.13,,---,0.36,VWS V14.01,2013-06-03 06:36:00,
2013-06-03 02:41:00,65.0,64.4,29.83,NNW,342,0.0,0.0,98,0.12,,---,0.36,VWS V14.01,2013-06-03 06:41:00,
2013-06-03 02:46:00,65.1,64.5,29.83,WNW,301,0.0,0.0,98,0.11,,---,0.36,VWS V14.01,2013-06-03 06:46:00,
2013-06-03 02:51:00,65.1,64.5,29.83,WNW,301,0.0,0.0,98,0.08,,---,0.36,VWS V14.01,2013-06-03 06:51:00,
2013-06-03 02:56:00,65.1,64.5,29.83,WNW,300,0.0,0.0,98,0.06,,---,0.36,VWS V14.01,2013-06-03 06:56:00,
2013-06-03 03:01:00,65.1,64.5,29.83,WNW,301,0.0,0.0,98,0.04,,---,0.36,VWS V14.01,2013-06-03 07:01:00,
2013-06-03 03:06:00,65.0,64.4,29.83,WNW,301,0.0,0.0,98,0.03,,---,0.36,VWS V14.01,2013-06-03 07:06:00,
2013-06-03 03:11:00,65.0,64.4,29.83,WNW,301,0.0,0.0,98,0.02,,---,0.36,VWS V14.01,2013-06-03 07:11:00,
2013-06-03 03:16:00,64.9,64.3,29.83,WNW,301,0.0,0.0,98,0.02,,---,0.36,VWS V14.01,2013-06-03 07:16:00,
2013-06-03 03:21:00,64.6,63.7,29.83,WNW,301,0.0,0.0,97,0.02,,---,0.36,VWS V14.01,2013-06-03 07:21:00,
2013-06-03 03:26:00,64.5,63.6,29.83,WNW,301,0.0,0.0,97,0.01,,---,0.36,VWS V14.01,2013-06-03 07:26:00,
2013-06-03 03:31:00,64.4,63.5,29.83,WNW,301,0.0,0.0,97,0.02,,---,0.37,VWS V14.01,2013-06-03 07:31:00,
2013-06-03 03:36:00,64.2,63.3,29.83,WNW,301,0.0,0.0,97,0.02,,---,0.38,VWS V14.01,2013-06-03 07:36:00,
2013-06-03 03:41:00,64.0,63.1,29.83,WNW,301,0.0,0.0,97,0.02,,---,0.38,VWS V14.01,2013-06-03 07:41:00,
2013-06-03 03:46:00,63.9,63.0,29.83,NW,316,0.0,0.0,97,0.02,,---,0.38,VWS V14.01,2013-06-03 07:46:00,
2013-06-03 03:51:00,63.7,62.8,29.83,WNW,303,0.0,0.0,97,0.02,,---,0.38,VWS V14.01,2013-06-03 07:51:00,
2013-06-03 03:56:00,63.5,62.6,29.83,WNW,287,0.0,0.0,97,0.02,,---,0.38,VWS V14.01,2013-06-03 07:56:00,
2013-06-03 04:02:00,63.5,62.6,29.83,WNW,285,0.0,0.0,97,0.02,,---,0.38,VWS V14.01,2013-06-03 08:02:00,
2013-06-03 04:07:00,63.4,62.8,29.83,WNW,285,0.0,0.0,98,0.02,,---,0.38,VWS V14.01,2013-06-03 08:07:00,
2013-06-03 04:12:00,63.4,62.8,29.83,West,281,0.0,0.0,98,0.02,,---,0.38,VWS V14.01,2013-06-03 08:12:00,
2013-06-03 04:17:00,63.5,62.9,29.83,West,281,0.0,0.0,98,0.02,,---,0.38,VWS V14.01,2013-06-03 08:17:00,
2013-06-03 04:22:00,63.5,62.9,29.83,West,281,0.0,0.0,98,0.02,,---,0.38,VWS V14.01,2013-06-03 08:22:00,
2013-06-03 04:27:00,63.4,62.8,29.83,West,281,0.0,0.0,98,0.02,,---,0.38,VWS V14.01,2013-06-03 08:27:00,
2013-06-03 04:32:00,63.4,62.8,29.83,West,281,0.0,0.0,98,0.01,,---,0.38,VWS V14.01,2013-06-03 08:32:00,
2013-06-03 04:37:00,63.4,62.8,29.84,West,281,0.0,0.0,98,0.00,,---,0.38,VWS V14.01,2013-06-03 08:37:00,
2013-06-03 04:42:00,63.4,62.8,29.84,West,281,0.0,0.0,98,0.00,,---,0.38,VWS V14.01,2013-06-03 08:42:00,
2013-06-03 04:47:00,63.4,62.8,29.83,West,281,0.0,0.0,98,0.00,,---,0.38,VWS V14.01,2013-06-03 08:47:00,
2013-06-03 04:52:00,63.4,62.8,29.83,West,281,0.0,0.0,98,0.00,,---,0.38,VWS V14.01,2013-06-03 08:52:00,
2013-06-03 04:57:00,63.4,62.8,29.83,West,281,0.0,0.0,98,0.00,,---,0.38,VWS V14.01,2013-06-03 08:57:00,
2013-06-03 05:03:00,63.4,62.8,29.83,West,281,0.0,0.0,98,0.00,,---,0.38,VWS V14.01,2013-06-03 09:03:00,
2013-06-03 05:08:00,63.3,62.7,29.83,West,281,0.0,0.0,98,0.00,,---,0.38,VWS V14.01,2013-06-03 09:08:00,
2013-06-03 05:13:00,63.4,62.8,29.84,West,281,0.0,0.0,98,0.00,,---,0.38,VWS V14.01,2013-06-03 09:13:00,
2013-06-03 05:18:00,63.4,62.8,29.84,West,281,0.0,0.0,98,0.00,,---,0.38,VWS V14.01,2013-06-03 09:18:00,
2013-06-03 05:23:00,63.4,62.8,29.84,West,281,0.0,0.0,98,0.00,,---,0.38,VWS V14.01,2013-06-03 09:23:00,
2013-06-03 05:28:00,63.4,62.8,29.84,West,281,0.0,0.0,98,0.00,,---,0.38,VWS V14.01,2013-06-03 09:28:00,
2013-06-03 05:33:00,63.4,62.8,29.84,West,281,0.0,0.0,98,0.00,,---,0.38,VWS V14.01,2013-06-03 09:33:00,
2013-06-03 05:38:00,63.4,62.8,29.84,West,281,0.0,0.0,98,0.00,,---,0.38,VWS V14.01,2013-06-03 09:38:00,
2013-06-03 05:43:00,63.3,62.7,29.84,West,281,0.0,0.0,98,0.00,,---,0.38,VWS V14.01,2013-06-03 09:43:00,
2013-06-03 05:48:00,63.3,62.7,29.84,West,281,0.0,0.0,98,0.00,,---,0.38,VWS V14.01,2013-06-03 09:48:00,
2013-06-03 05:53:00,63.2,62.6,29.84,West,281,0.0,0.0,98,0.00,,---,0.38,VWS V14.01,2013-06-03 09:53:00,
2013-06-03 05:58:00,63.0,62.4,29.85,West,281,0.0,0.0,98,0.01,,---,0.39,VWS V14.01,2013-06-03 09:58:00,
2013-06-03 06:04:00,63.0,62.4,29.85,West,281,0.0,0.0,98,0.01,,---,0.39,VWS V14.01,2013-06-03 10:04:00,
2013-06-03 06:09:00,63.0,62.4,29.85,West,281,0.0,0.0,98,0.01,,---,0.39,VWS V14.01,2013-06-03 10:09:00,
2013-06-03 06:14:00,63.0,62.4,29.85,West,281,0.0,0.0,98,0.01,,---,0.39,VWS V14.01,2013-06-03 10:14:00,
2013-06-03 06:19:00,63.0,62.4,29.85,West,281,0.0,0.0,98,0.01,,---,0.39,VWS V14.01,2013-06-03 10:19:00,
2013-06-03 06:24:00,63.1,62.5,29.84,West,281,0.0,0.0,98,0.01,,---,0.39,VWS V14.01,2013-06-03 10:24:00,
2013-06-03 06:29:00,63.2,62.6,29.84,West,281,0.0,0.0,98,0.01,,---,0.39,VWS V14.01,2013-06-03 10:29:00,
2013-06-03 06:34:00,63.3,62.7,29.85,West,281,0.0,0.0,98,0.01,,---,0.39,VWS V14.01,2013-06-03 10:34:00,
2013-06-03 06:39:00,63.3,62.7,29.85,West,281,0.0,0.0,98,0.01,,---,0.39,VWS V14.01,2013-06-03 10:39:00,
2013-06-03 06:44:00,63.4,62.8,29.85,West,281,0.0,0.0,98,0.01,,---,0.39,VWS V14.01,2013-06-03 10:44:00,
2013-06-03 06:49:00,63.5,62.9,29.85,West,281,0.0,0.0,98,0.01,,---,0.39,VWS V14.01,2013-06-03 10:49:00,
2013-06-03 06:54:00,63.5,62.9,29.85,West,281,0.0,0.0,98,0.01,,---,0.39,VWS V14.01,2013-06-03 10:54:00,
2013-06-03 06:59:00,63.6,63.0,29.84,SSW,200,0.0,0.0,98,0.00,,---,0.39,VWS V14.01,2013-06-03 10:59:00,
2013-06-03 07:05:00,63.9,63.3,29.85,SSW,200,0.0,0.0,98,0.00,,---,0.39,VWS V14.01,2013-06-03 11:05:00,
2013-06-03 07:10:00,64.1,63.5,29.85,SSW,200,0.0,0.0,98,0.00,,---,0.39,VWS V14.01,2013-06-03 11:10:00,
2013-06-03 07:15:00,64.4,64.1,29.85,SSW,200,0.0,0.0,99,0.00,,---,0.39,VWS V14.01,2013-06-03 11:15:00,
2013-06-03 07:20:00,64.6,64.3,29.85,SSW,200,0.0,0.0,99,0.00,,---,0.39,VWS V14.01,2013-06-03 11:20:00,
2013-06-03 07:25:00,64.8,64.5,29.85,SSW,200,0.0,0.0,99,0.00,,---,0.39,VWS V14.01,2013-06-03 11:25:00,
2013-06-03 07:30:00,64.8,64.5,29.85,SSW,200,0.0,0.0,99,0.00,,---,0.39,VWS V14.01,2013-06-03 11:30:00,
2013-06-03 07:35:00,65.0,64.7,29.85,SSW,200,0.0,0.0,99,0.00,,---,0.39,VWS V14.01,2013-06-03 11:35:00,
2013-06-03 07:40:00,65.1,64.5,29.85,NW,319,0.0,0.0,98,0.00,,---,0.39,VWS V14.01,2013-06-03 11:40:00,
2013-06-03 07:45:00,65.0,64.4,29.85,NW,319,0.0,0.0,98,0.00,,---,0.39,VWS V14.01,2013-06-03 11:45:00,
2013-06-03 07:50:00,65.3,64.7,29.85,NW,319,0.0,0.0,98,0.00,,---,0.39,VWS V14.01,2013-06-03 11:50:00,
2013-06-03 07:56:00,65.5,64.9,29.85,NW,319,0.0,0.0,98,0.00,,---,0.39,VWS V14.01,2013-06-03 11:56:00,
2013-06-03 08:01:00,65.5,64.9,29.85,NW,319,0.0,0.0,98,0.00,,---,0.39,VWS V14.01,2013-06-03 12:01:00,
2013-06-03 08:06:00,65.4,64.8,29.85,North,351,0.0,0.0,98,0.00,,---,0.39,VWS V14.01,2013-06-03 12:06:00,
2013-06-03 08:11:00,65.6,65.0,29.85,North,351,0.0,0.0,98,0.00,,---,0.39,VWS V14.01,2013-06-03 12:11:00,
2013-06-03 08:16:00,65.8,65.2,29.85,NNW,328,0.0,0.0,98,0.00,,---,0.39,VWS V14.01,2013-06-03 12:16:00,
2013-06-03 08:21:00,65.8,65.2,29.85,NW,319,0.0,1.0,98,0.00,,---,0.39,VWS V14.01,2013-06-03 12:21:00,
2013-06-03 08:26:00,66.0,65.4,29.85,NNW,334,0.0,0.0,98,0.00,,---,0.39,VWS V14.01,2013-06-03 12:26:00,
2013-06-03 08:31:00,66.0,65.4,29.86,NW,309,0.0,0.0,98,0.00,,---,0.39,VWS V14.01,2013-06-03 12:31:00,
2013-06-03 08:36:00,66.1,65.5,29.86,West,273,0.0,0.0,98,0.00,,---,0.39,VWS V14.01,2013-06-03 12:36:00,
2013-06-03 08:41:00,66.2,65.6,29.85,West,262,0.0,0.0,98,0.00,,---,0.39,VWS V14.01,2013-06-03 12:41:00,
2013-06-03 08:46:00,66.3,65.7,29.86,NW,311,0.0,0.0,98,0.00,,---,0.39,VWS V14.01,2013-06-03 12:46:00,
2013-06-03 08:51:00,66.5,65.6,29.86,NNW,340,0.0,1.0,97,0.00,,---,0.39,VWS V14.01,2013-06-03 12:51:00,
2013-06-03 08:56:00,66.8,65.9,29.86,NW,319,0.0,0.0,97,0.00,,---,0.39,VWS V14.01,2013-06-03 12:56:00,
2013-06-03 09:01:00,66.9,66.0,29.86,NW,319,0.0,0.0,97,0.00,,---,0.39,VWS V14.01,2013-06-03 13:01:00,
2013-06-03 09:06:00,67.1,66.2,29.86,WSW,242,1.0,1.0,97,0.00,,---,0.39,VWS V14.01,2013-06-03 13:06:00,
2013-06-03 09:11:00,67.1,65.9,29.86,WNW,285,0.0,0.0,96,0.00,,---,0.39,VWS V14.01,2013-06-03 13:11:00,
2013-06-03 09:17:00,67.5,66.3,29.86,WNW,285,0.0,0.0,96,0.00,,---,0.39,VWS V14.01,2013-06-03 13:17:00,
2013-06-03 09:22:00,67.7,66.2,29.86,WNW,285,0.0,0.0,95,0.00,,---,0.39,VWS V14.01,2013-06-03 13:22:00,
2013-06-03 09:27:00,67.9,66.7,29.86,WNW,283,0.0,0.0,96,0.00,,---,0.39,VWS V14.01,2013-06-03 13:27:00,
2013-06-03 09:32:00,68.1,66.6,29.86,WNW,283,0.0,0.0,95,0.00,,---,0.39,VWS V14.01,2013-06-03 13:32:00,
2013-06-03 09:37:00,68.2,66.7,29.86,WNW,283,0.0,0.0,95,0.00,,---,0.39,VWS V14.01,2013-06-03 13:37:00,
2013-06-03 09:42:00,68.0,66.2,29.86,WNW,283,0.0,0.0,94,0.00,,---,0.39,VWS V14.01,2013-06-03 13:42:00,
2013-06-03 09:47:00,68.1,66.6,29.86,WNW,283,0.0,0.0,95,0.00,,---,0.39,VWS V14.01,2013-06-03 13:47:00,
2013-06-03 09:52:00,68.1,66.6,29.86,WNW,283,0.0,0.0,95,0.00,,---,0.39,VWS V14.01,2013-06-03 13:52:00,
2013-06-03 09:57:00,68.2,66.7,29.86,WNW,283,0.0,0.0,95,0.00,,---,0.39,VWS V14.01,2013-06-03 13:57:00,
2013-06-03 10:02:00,68.2,66.7,29.86,WNW,283,0.0,0.0,95,0.00,,---,0.39,VWS V14.01,2013-06-03 14:02:00,
2013-06-03 10:07:00,68.5,67.0,29.86,WNW,283,0.0,0.0,95,0.00,,---,0.39,VWS V14.01,2013-06-03 14:07:00,
2013-06-03 10:12:00,68.6,66.5,29.86,WNW,283,0.0,0.0,93,0.00,,---,0.39,VWS V14.01,2013-06-03 14:12:00,
2013-06-03 10:17:00,68.6,66.8,29.86,WNW,283,0.0,0.0,94,0.00,,---,0.39,VWS V14.01,2013-06-03 14:17:00,
2013-06-03 10:22:00,68.7,66.9,29.86,West,278,0.0,0.0,94,0.00,,---,0.39,VWS V14.01,2013-06-03 14:22:00,
2013-06-03 10:27:00,68.6,66.5,29.86,WSW,250,0.0,0.0,93,0.00,,---,0.39,VWS V14.01,2013-06-03 14:27:00,
2013-06-03 10:33:00,69.0,67.2,29.86,East,95,0.0,0.0,94,0.00,,---,0.39,VWS V14.01,2013-06-03 14:33:00,
2013-06-03 10:38:00,69.6,67.2,29.86,WSW,254,0.0,1.0,92,0.00,,---,0.39,VWS V14.01,2013-06-03 14:38:00,
2013-06-03 10:43:00,70.1,67.7,29.86,SE,143,0.0,0.0,92,0.00,,---,0.39,VWS V14.01,2013-06-03 14:43:00,
2013-06-03 10:48:00,70.4,67.7,29.86,SE,142,0.0,0.0,91,0.00,,---,0.39,VWS V14.01,2013-06-03 14:48:00,
2013-06-03 10:53:00,70.7,67.9,29.86,SE,142,0.0,0.0,91,0.00,,---,0.39,VWS V14.01,2013-06-03 14:53:00,
2013-06-03 10:58:00,70.6,67.8,29.86,SE,142,0.0,0.0,91,0.00,,---,0.39,VWS V14.01,2013-06-03 14:58:00,
2013-06-03 11:03:00,70.2,66.5,29.86,SSW,198,0.0,0.0,88,0.00,,---,0.39,VWS V14.01,2013-06-03 15:03:00,
2013-06-03 11:08:00,70.3,66.9,29.86,SSW,198,0.0,0.0,89,0.00,,---,0.39,VWS V14.01,2013-06-03 15:08:00,
2013-06-03 11:13:00,70.9,67.5,29.85,SSW,194,0.0,0.0,89,0.00,,---,0.39,VWS V14.01,2013-06-03 15:13:00,
2013-06-03 11:18:00,71.3,67.2,29.85,SSE,162,0.0,0.0,87,0.00,,---,0.39,VWS V14.01,2013-06-03 15:18:00,
2013-06-03 11:23:00,71.6,66.9,29.85,SSE,163,0.0,0.0,85,0.00,,---,0.39,VWS V14.01,2013-06-03 15:23:00,
2013-06-03 11:28:00,71.6,67.2,29.86,SW,229,0.0,0.0,86,0.00,,---,0.39,VWS V14.01,2013-06-03 15:28:00,
2013-06-03 11:33:00,72.1,67.7,29.85,SW,236,0.0,0.0,86,0.00,,---,0.39,VWS V14.01,2013-06-03 15:33:00,
2013-06-03 11:38:00,72.7,67.6,29.85,SE,130,0.0,0.0,84,0.00,,---,0.39,VWS V14.01,2013-06-03 15:38:00,
2013-06-03 11:44:00,73.1,68.3,29.85,SE,131,0.0,1.0,85,0.00,,---,0.39,VWS V14.01,2013-06-03 15:44:00,
2013-06-03 11:49:00,72.9,66.7,29.85,West,266,0.0,0.0,81,0.00,,---,0.39,VWS V14.01,2013-06-03 15:49:00,
2013-06-03 11:54:00,73.0,68.2,29.85,West,267,0.0,0.0,85,0.00,,---,0.39,VWS V14.01,2013-06-03 15:54:00,
2013-06-03 11:59:00,73.5,68.7,29.85,SE,142,0.0,0.0,85,0.00,,---,0.39,VWS V14.01,2013-06-03 15:59:00,
2013-06-03 12:04:00,74.2,68.4,29.85,East,93,0.0,0.0,82,0.00,,---,0.39,VWS V14.01,2013-06-03 16:04:00,
2013-06-03 12:09:00,75.0,68.8,29.85,East,87,0.0,0.0,81,0.00,,---,0.39,VWS V14.01,2013-06-03 16:09:00,
2013-06-03 12:15:00,76.1,68.8,29.85,East,89,0.0,0.0,78,0.00,,---,0.39,VWS V14.01,2013-06-03 16:15:00,
2013-06-03 12:20:00,77.2,68.7,29.85,WSW,257,0.0,2.0,75,0.00,,---,0.39,VWS V14.01,2013-06-03 16:20:00,
2013-06-03 12:25:00,77.6,69.4,29.85,NE,47,0.0,0.0,76,0.00,,---,0.39,VWS V14.01,2013-06-03 16:25:00,
2013-06-03 12:30:00,77.7,68.8,29.85,NE,46,0.0,0.0,74,0.00,,---,0.39,VWS V14.01,2013-06-03 16:30:00,
2013-06-03 12:35:00,77.7,67.1,29.84,NW,311,0.0,0.0,70,0.00,,---,0.39,VWS V14.01,2013-06-03 16:35:00,
2013-06-03 12:40:00,77.6,67.1,29.84,NW,310,0.0,0.0,70,0.00,,---,0.39,VWS V14.01,2013-06-03 16:40:00,
2013-06-03 12:45:00,78.1,68.3,29.84,NW,312,0.0,0.0,72,0.00,,---,0.39,VWS V14.01,2013-06-03 16:45:00,
2013-06-03 12:50:00,78.1,70.3,29.84,NW,309,0.0,0.0,77,0.00,,---,0.39,VWS V14.01,2013-06-03 16:50:00,
2013-06-03 12:55:00,77.3,67.2,29.84,NW,309,0.0,0.0,71,0.00,,---,0.39,VWS V14.01,2013-06-03 16:55:00,
2013-06-03 13:00:00,76.4,68.3,29.85,NW,309,0.0,0.0,76,0.00,,---,0.39,VWS V14.01,2013-06-03 17:00:00,
2013-06-03 13:05:00,75.7,68.0,29.84,NW,309,0.0,0.0,77,0.00,,---,0.39,VWS V14.01,2013-06-03 17:05:00,
2013-06-03 13:10:00,74.9,67.9,29.85,NW,309,0.0,0.0,79,0.00,,---,0.39,VWS V14.01,2013-06-03 17:10:00,
2013-06-03 13:15:00,74.1,67.5,29.85,NW,309,0.0,0.0,80,0.00,,---,0.39,VWS V14.01,2013-06-03 17:15:00,
2013-06-03 13:20:00,73.4,67.2,29.85,NW,308,0.0,0.0,81,0.00,,---,0.39,VWS V14.01,2013-06-03 17:20:00,
2013-06-03 13:25:00,72.3,66.8,29.85,WNW,301,0.0,0.0,83,0.00,,---,0.39,VWS V14.01,2013-06-03 17:25:00,
2013-06-03 13:30:00,71.5,66.4,29.85,WNW,300,0.0,0.0,84,0.00,,---,0.39,VWS V14.01,2013-06-03 17:30:00,
2013-06-03 13:35:00,71.1,66.7,29.85,WNW,301,0.0,0.0,86,0.00,,---,0.39,VWS V14.01,2013-06-03 17:35:00,
2013-06-03 13:40:00,71.1,67.4,29.85,WNW,301,0.0,0.0,88,0.00,,---,0.39,VWS V14.01,2013-06-03 17:40:00,
2013-06-03 13:46:00,71.3,67.9,29.85,South,183,0.0,0.0,89,0.00,,---,0.39,VWS V14.01,2013-06-03 17:46:00,
2013-06-03 13:51:00,71.5,67.4,29.85,WNW,301,0.0,0.0,87,0.00,,---,0.39,VWS V14.01,2013-06-03 17:51:00,
2013-06-03 13:56:00,71.9,67.2,29.84,WNW,301,0.0,0.0,85,0.00,,---,0.39,VWS V14.01,2013-06-03 17:56:00,
2013-06-03 14:01:00,72.2,67.1,29.84,SSE,152,0.0,0.0,84,0.00,,---,0.39,VWS V14.01,2013-06-03 18:01:00,
2013-06-03 14:06:00,72.6,66.8,29.84,SSW,197,0.0,0.0,82,0.00,,---,0.39,VWS V14.01,2013-06-03 18:06:00,
2013-06-03 14:11:00,72.9,67.1,29.84,SSW,197,0.0,0.0,82,0.00,,---,0.39,VWS V14.01,2013-06-03 18:11:00,
2013-06-03 14:16:00,72.9,66.7,29.84,WSW,237,0.0,0.0,81,0.00,,---,0.39,VWS V14.01,2013-06-03 18:16:00,
2013-06-03 14:22:00,72.8,66.6,29.84,SW,235,0.0,0.0,81,0.00,,---,0.39,VWS V14.01,2013-06-03 18:22:00,
2013-06-03 14:27:00,72.6,65.3,29.84,SW,218,0.0,0.0,78,0.00,,---,0.39,VWS V14.01,2013-06-03 18:27:00,
2013-06-03 14:32:00,72.9,67.1,29.84,SW,224,0.0,0.0,82,0.00,,---,0.39,VWS V14.01,2013-06-03 18:32:00,
2013-06-03 14:37:00,73.1,66.6,29.84,NNW,336,0.0,0.0,80,0.00,,---,0.39,VWS V14.01,2013-06-03 18:37:00,
2013-06-03 14:42:00,73.5,66.2,29.84,WNW,300,0.0,3.0,78,0.00,,---,0.39,VWS V14.01,2013-06-03 18:42:00,
2013-06-03 14:47:00,74.1,66.4,29.85,SW,225,0.0,1.0,77,0.00,,---,0.39,VWS V14.01,2013-06-03 18:47:00,
2013-06-03 14:52:00,74.4,66.3,29.85,WNW,291,0.0,1.0,76,0.00,,---,0.39,VWS V14.01,2013-06-03 18:52:00,
2013-06-03 14:57:00,74.4,66.0,29.85,WSW,252,0.0,1.0,75,0.00,,---,0.39,VWS V14.01,2013-06-03 18:57:00,
2013-06-03 15:02:00,74.0,66.7,29.85,WSW,248,0.0,0.0,78,0.00,,---,0.39,VWS V14.01,2013-06-03 19:02:00,
2013-06-03 15:07:00,73.7,66.1,29.85,SSE,151,0.0,0.0,77,0.00,,---,0.39,VWS V14.01,2013-06-03 19:07:00,
2013-06-03 15:13:00,73.1,65.5,29.86,WSW,253,0.0,1.0,77,0.00,,---,0.39,VWS V14.01,2013-06-03 19:13:00,
2013-06-03 15:18:00,72.5,64.9,29.86,SSW,205,0.0,0.0,77,0.00,,---,0.39,VWS V14.01,2013-06-03 19:18:00,
2013-06-03 15:23:00,72.2,66.4,29.86,SSW,210,0.0,0.0,82,0.00,,---,0.39,VWS V14.01,2013-06-03 19:23:00,
2013-06-03 15:28:00,72.1,66.3,29.86,South,191,0.0,0.0,82,0.00,,---,0.39,VWS V14.01,2013-06-03 19:28:00,
2013-06-03 15:33:00,71.8,65.3,29.86,WNW,288,0.0,0.0,80,0.00,,---,0.39,VWS V14.01,2013-06-03 19:33:00,
2013-06-03 15:38:00,72.0,66.2,29.85,WNW,288,0.0,0.0,82,0.00,,---,0.39,VWS V14.01,2013-06-03 19:38:00,
2013-06-03 15:43:00,72.3,66.5,29.85,West,276,0.0,0.0,82,0.00,,---,0.39,VWS V14.01,2013-06-03 19:43:00,
2013-06-03 15:48:00,72.6,66.1,29.85,South,191,0.0,1.0,80,0.00,,---,0.39,VWS V14.01,2013-06-03 19:48:00,
2013-06-03 15:53:00,72.8,64.4,29.84,SW,214,0.0,1.0,75,0.00,,---,0.39,VWS V14.01,2013-06-03 19:53:00,
2013-06-03 15:58:00,73.1,66.2,29.84,North,9,0.0,1.0,79,0.00,,---,0.39,VWS V14.01,2013-06-03 19:58:00,
2013-06-03 16:03:00,72.8,65.2,29.84,South,190,1.0,1.0,77,0.00,,---,0.39,VWS V14.01,2013-06-03 20:03:00,
2013-06-03 16:08:00,72.5,64.5,29.84,SSE,162,0.0,2.0,76,0.00,,---,0.39,VWS V14.01,2013-06-03 20:08:00,
2013-06-03 16:13:00,72.3,64.7,29.85,SSE,153,0.0,1.0,77,0.00,,---,0.39,VWS V14.01,2013-06-03 20:13:00,
2013-06-03 16:18:00,72.5,65.6,29.84,SSE,153,0.0,0.0,79,0.00,,---,0.39,VWS V14.01,2013-06-03 20:18:00,
2013-06-03 16:23:00,72.9,66.0,29.84,South,175,0.0,0.0,79,0.00,,---,0.39,VWS V14.01,2013-06-03 20:23:00,
2013-06-03 16:29:00,73.0,65.4,29.84,SSW,206,0.0,0.0,77,0.00,,---,0.39,VWS V14.01,2013-06-03 20:29:00,
2013-06-03 16:34:00,73.4,64.6,29.84,ESE,110,1.0,1.0,74,0.00,,---,0.39,VWS V14.01,2013-06-03 20:34:00,
2013-06-03 16:39:00,73.3,63.7,29.84,South,172,0.0,1.0,72,0.00,,---,0.39,VWS V14.01,2013-06-03 20:39:00,
2013-06-03 16:44:00,73.3,64.5,29.84,NE,53,0.0,0.0,74,0.00,,---,0.39,VWS V14.01,2013-06-03 20:44:00,
2013-06-03 16:49:00,73.2,64.8,29.84,South,185,0.0,0.0,75,0.00,,---,0.39,VWS V14.01,2013-06-03 20:49:00,
2013-06-03 16:54:00,73.3,64.9,29.83,SSE,150,0.0,0.0,75,0.00,,---,0.39,VWS V14.01,2013-06-03 20:54:00,
2013-06-03 16:59:00,73.4,65.4,29.83,SE,125,0.0,0.0,76,0.00,,---,0.39,VWS V14.01,2013-06-03 20:59:00,
2013-06-03 17:04:00,73.2,64.0,29.83,SSW,201,1.0,1.0,73,0.00,,---,0.39,VWS V14.01,2013-06-03 21:04:00,
2013-06-03 17:09:00,73.0,63.0,29.83,WNW,297,1.0,1.0,71,0.00,,---,0.39,VWS V14.01,2013-06-03 21:09:00,
2013-06-03 17:14:00,72.8,62.9,29.83,SSE,158,0.0,0.0,71,0.00,,---,0.39,VWS V14.01,2013-06-03 21:14:00,
2013-06-03 17:19:00,72.7,63.2,29.83,SSW,203,0.0,0.0,72,0.00,,---,0.39,VWS V14.01,2013-06-03 21:19:00,
2013-06-03 17:24:00,72.6,64.2,29.83,WSW,258,0.0,1.0,75,0.00,,---,0.39,VWS V14.01,2013-06-03 21:24:00,
2013-06-03 17:29:00,72.6,64.2,29.83,WSW,258,0.0,0.0,75,0.00,,---,0.39,VWS V14.01,2013-06-03 21:29:00,
2013-06-03 17:34:00,72.5,63.8,29.83,SW,231,0.0,1.0,74,0.00,,---,0.39,VWS V14.01,2013-06-03 21:34:00,
2013-06-03 17:39:00,72.5,63.8,29.84,SE,127,0.0,1.0,74,0.00,,---,0.39,VWS V14.01,2013-06-03 21:39:00,
2013-06-03 17:44:00,72.2,62.7,29.84,West,264,0.0,1.0,72,0.00,,---,0.39,VWS V14.01,2013-06-03 21:44:00,
2013-06-03 17:49:00,71.7,62.6,29.83,West,264,0.0,0.0,73,0.00,,---,0.39,VWS V14.01,2013-06-03 21:49:00,
2013-06-03 17:54:00,71.3,63.3,29.84,West,264,0.0,0.0,76,0.00,,---,0.39,VWS V14.01,2013-06-03 21:54:00,
2013-06-03 18:00:00,71.1,63.2,29.84,West,270,0.0,0.0,76,0.00,,---,0.39,VWS V14.01,2013-06-03 22:00:00,
2013-06-03 18:05:00,71.1,63.5,29.84,West,269,0.0,0.0,77,0.00,,---,0.39,VWS V14.01,2013-06-03 22:05:00,
2013-06-03 18:10:00,70.9,62.6,29.83,SSW,197,0.0,0.0,75,0.00,,---,0.39,VWS V14.01,2013-06-03 22:10:00,
2013-06-03 18:15:00,70.7,62.4,29.84,ESE,123,0.0,0.0,75,0.00,,---,0.39,VWS V14.01,2013-06-03 22:15:00,
2013-06-03 18:20:00,70.6,62.3,29.84,ESE,123,0.0,0.0,75,0.00,,---,0.39,VWS V14.01,2013-06-03 22:20:00,
2013-06-03 18:25:00,70.5,62.2,29.84,ESE,123,0.0,0.0,75,0.00,,---,0.39,VWS V14.01,2013-06-03 22:25:00,
2013-06-03 18:30:00,70.2,62.3,29.84,ESE,123,0.0,0.0,76,0.00,,---,0.39,VWS V14.01,2013-06-03 22:30:00,
2013-06-03 18:35:00,69.9,62.0,29.84,ESE,122,0.0,0.0,76,0.00,,---,0.39,VWS V14.01,2013-06-03 22:35:00,
2013-06-03 18:41:00,69.6,61.7,29.84,ESE,123,0.0,0.0,76,0.00,,---,0.39,VWS V14.01,2013-06-03 22:41:00,
2013-06-03 18:46:00,69.4,62.2,29.84,ESE,123,0.0,0.0,78,0.00,,---,0.39,VWS V14.01,2013-06-03 22:46:00,
2013-06-03 18:51:00,69.2,62.4,29.84,ESE,123,0.0,0.0,79,0.00,,---,0.39,VWS V14.01,2013-06-03 22:51:00,
2013-06-03 18:56:00,68.9,62.1,29.85,ESE,122,0.0,0.0,79,0.00,,---,0.39,VWS V14.01,2013-06-03 22:56:00,
2013-06-03 19:01:00,68.8,62.0,29.85,ESE,123,0.0,0.0,79,0.00,,---,0.39,VWS V14.01,2013-06-03 23:01:00,
2013-06-03 19:06:00,68.6,62.2,29.85,ESE,123,0.0,0.0,80,0.00,,---,0.39,VWS V14.01,2013-06-03 23:06:00,
2013-06-03 19:11:00,68.6,62.2,29.86,ESE,122,0.0,0.0,80,0.00,,---,0.39,VWS V14.01,2013-06-03 23:11:00,
2013-06-03 19:16:00,68.5,62.5,29.86,ESE,123,0.0,0.0,81,0.00,,---,0.39,VWS V14.01,2013-06-03 23:16:00,
2013-06-03 19:21:00,68.3,62.2,29.86,ESE,123,0.0,0.0,81,0.00,,---,0.39,VWS V14.01,2013-06-03 23:21:00,
2013-06-03 19:27:00,68.1,62.4,29.86,ESE,123,0.0,0.0,82,0.00,,---,0.39,VWS V14.01,2013-06-03 23:27:00,
2013-06-03 19:32:00,67.9,62.5,29.86,ESE,122,0.0,0.0,83,0.00,,---,0.39,VWS V14.01,2013-06-03 23:32:00,
2013-06-03 19:37:00,67.7,62.4,29.86,ESE,123,0.0,0.0,83,0.00,,---,0.39,VWS V14.01,2013-06-03 23:37:00,
2013-06-03 19:42:00,67.5,62.5,29.86,ESE,122,0.0,0.0,84,0.00,,---,0.39,VWS V14.01,2013-06-03 23:42:00,
2013-06-03 19:47:00,67.2,62.2,29.86,ESE,123,0.0,0.0,84,0.00,,---,0.39,VWS V14.01,2013-06-03 23:47:00,
2013-06-03 19:52:00,67.1,62.5,29.87,ESE,123,0.0,0.0,85,0.00,,---,0.39,VWS V14.01,2013-06-03 23:52:00,
2013-06-03 19:57:00,66.9,61.6,29.87,ESE,123,0.0,0.0,83,0.00,,---,0.39,VWS V14.01,2013-06-03 23:57:00,
2013-06-03 20:02:00,66.8,61.1,29.87,West,274,0.0,0.0,82,0.00,,---,0.39,VWS V14.01,2013-06-04 00:02:00,
2013-06-03 20:07:00,66.9,59.8,29.87,West,274,0.0,0.0,78,0.00,,---,0.39,VWS V14.01,2013-06-04 00:07:00,
2013-06-03 20:12:00,67.1,60.0,29.87,SW,226,0.0,1.0,78,0.00,,---,0.39,VWS V14.01,2013-06-04 00:12:00,
2013-06-03 20:17:00,67.0,59.6,29.87,West,270,0.0,0.0,77,0.00,,---,0.39,VWS V14.01,2013-06-04 00:17:00,
2013-06-03 20:22:00,66.8,59.7,29.87,West,270,0.0,0.0,78,0.00,,---,0.39,VWS V14.01,2013-06-04 00:22:00,
2013-06-03 20:27:00,66.6,59.2,29.87,West,273,1.0,1.0,77,0.00,,---,0.39,VWS V14.01,2013-06-04 00:27:00,
2013-06-03 20:32:00,66.4,58.6,29.87,West,277,0.0,1.0,76,0.00,,---,0.39,VWS V14.01,2013-06-04 00:32:00,
2013-06-03 20:37:00,66.1,58.3,29.87,West,277,0.0,1.0,76,0.00,,---,0.39,VWS V14.01,2013-06-04 00:37:00,
2013-06-03 20:42:00,65.9,58.5,29.87,West,274,0.0,0.0,77,0.00,,---,0.39,VWS V14.01,2013-06-04 00:42:00,
2013-06-03 20:47:00,65.7,57.9,29.88,WSW,242,0.0,0.0,76,0.00,,---,0.39,VWS V14.01,2013-06-04 00:47:00,
2013-06-03 20:52:00,65.6,57.5,29.88,West,262,0.0,0.0,75,0.00,,---,0.39,VWS V14.01,2013-06-04 00:52:00,
2013-06-03 20:58:00,65.5,57.7,29.89,SW,217,0.0,0.0,76,0.00,,---,0.39,VWS V14.01,2013-06-04 00:58:00,
2013-06-03 21:03:00,65.4,56.9,29.89,WSW,256,0.0,1.0,74,0.00,,---,0.39,VWS V14.01,2013-06-04 01:03:00,
2013-06-03 21:08:00,65.3,56.8,29.89,WSW,256,0.0,0.0,74,0.00,,---,0.39,VWS V14.01,2013-06-04 01:08:00,
2013-06-03 21:13:00,65.1,57.0,29.89,SW,226,0.0,0.0,75,0.00,,---,0.39,VWS V14.01,2013-06-04 01:13:00,
2013-06-03 21:18:00,65.0,56.9,29.90,SW,214,0.0,1.0,75,0.00,,---,0.39,VWS V14.01,2013-06-04 01:18:00,
2013-06-03 21:23:00,64.9,56.8,29.90,WSW,245,0.0,0.0,75,0.00,,---,0.39,VWS V14.01,2013-06-04 01:23:00,
2013-06-03 21:28:00,64.7,56.6,29.90,WSW,246,0.0,0.0,75,0.00,,---,0.39,VWS V14.01,2013-06-04 01:28:00,
2013-06-03 21:33:00,64.7,56.6,29.91,SSW,212,0.0,1.0,75,0.00,,---,0.39,VWS V14.01,2013-06-04 01:33:00,
2013-06-03 21:38:00,64.6,56.5,29.91,West,272,0.0,0.0,75,0.00,,---,0.39,VWS V14.01,2013-06-04 01:38:00,
2013-06-03 21:43:00,64.5,56.4,29.91,West,271,0.0,1.0,75,0.00,,---,0.39,VWS V14.01,2013-06-04 01:43:00,
2013-06-03 21:48:00,64.4,56.3,29.92,SSW,212,0.0,0.0,75,0.00,,---,0.39,VWS V14.01,2013-06-04 01:48:00,
2013-06-03 21:54:00,64.5,56.4,29.92,WNW,285,0.0,0.0,75,0.00,,---,0.39,VWS V14.01,2013-06-04 01:54:00,
2013-06-03 21:59:00,64.6,56.9,29.92,WNW,285,0.0,0.0,76,0.00,,---,0.39,VWS V14.01,2013-06-04 01:59:00,
2013-06-03 22:04:00,64.3,56.6,29.92,WNW,285,0.0,0.0,76,0.00,,---,0.39,VWS V14.01,2013-06-04 02:04:00,
2013-06-03 22:09:00,64.1,56.8,29.92,WNW,283,0.0,0.0,77,0.00,,---,0.39,VWS V14.01,2013-06-04 02:09:00,
2013-06-03 22:14:00,63.8,56.1,29.93,West,281,0.0,0.0,76,0.00,,---,0.39,VWS V14.01,2013-06-04 02:14:00,
2013-06-03 22:19:00,63.6,56.3,29.93,SW,228,0.0,1.0,77,0.00,,---,0.39,VWS V14.01,2013-06-04 02:19:00,
2013-06-03 22:24:00,63.5,56.5,29.93,SW,225,0.0,0.0,78,0.00,,---,0.39,VWS V14.01,2013-06-04 02:24:00,
2013-06-03 22:29:00,63.3,56.0,29.93,NW,319,0.0,1.0,77,0.00,,---,0.39,VWS V14.01,2013-06-04 02:29:00,
2013-06-03 22:34:00,63.1,56.1,29.93,SSW,200,0.0,0.0,78,0.00,,---,0.39,VWS V14.01,2013-06-04 02:34:00,
2013-06-03 22:40:00,62.9,56.6,29.94,South,177,0.0,0.0,80,0.00,,---,0.39,VWS V14.01,2013-06-04 02:40:00,
2013-06-03 22:45:00,62.7,55.4,29.94,WSW,250,0.0,0.0,77,0.00,,---,0.39,VWS V14.01,2013-06-04 02:45:00,
2013-06-03 22:50:00,62.6,55.3,29.94,SW,229,0.0,0.0,77,0.00,,---,0.39,VWS V14.01,2013-06-04 02:50:00,
2013-06-03 22:55:00,62.5,55.6,29.94,WSW,245,0.0,0.0,78,0.00,,---,0.39,VWS V14.01,2013-06-04 02:55:00,
2013-06-03 23:00:00,62.3,55.4,29.95,WSW,245,0.0,0.0,78,0.00,,---,0.39,VWS V14.01,2013-06-04 03:00:00,
2013-06-03 23:05:00,62.1,56.5,29.95,WSW,243,0.0,0.0,82,0.00,,---,0.39,VWS V14.01,2013-06-04 03:05:00,
2013-06-03 23:10:00,61.7,56.5,29.95,WSW,243,0.0,0.0,83,0.00,,---,0.39,VWS V14.01,2013-06-04 03:10:00,
2013-06-03 23:15:00,61.3,55.8,29.95,WSW,243,0.0,0.0,82,0.00,,---,0.39,VWS V14.01,2013-06-04 03:15:00,
2013-06-03 23:20:00,61.0,56.5,29.95,WSW,244,0.0,0.0,85,0.00,,---,0.39,VWS V14.01,2013-06-04 03:20:00,
2013-06-03 23:25:00,60.7,55.8,29.95,WSW,243,0.0,0.0,84,0.00,,---,0.39,VWS V14.01,2013-06-04 03:25:00,
2013-06-03 23:31:00,60.4,55.9,29.95,WSW,243,0.0,0.0,85,0.00,,---,0.39,VWS V14.01,2013-06-04 03:31:00,
2013-06-03 23:36:00,60.0,55.2,29.95,WSW,245,0.0,0.0,84,0.00,,---,0.39,VWS V14.01,2013-06-04 03:36:00,
2013-06-03 23:41:00,59.7,54.9,29.95,WSW,245,0.0,0.0,84,0.00,,---,0.39,VWS V14.01,2013-06-04 03:41:00,
2013-06-03 23:46:00,59.5,55.0,29.95,WSW,245,0.0,0.0,85,0.00,,---,0.39,VWS V14.01,2013-06-04 03:46:00,
2013-06-03 23:51:00,59.3,54.5,29.95,WSW,243,0.0,0.0,84,0.00,,---,0.39,VWS V14.01,2013-06-04 03:51:00,
2013-06-03 23:56:00,59.2,54.4,29.96,WSW,245,0.0,0.0,84,0.00,,---,0.39,VWS V14.01,2013-06-04 03:56:00,